createdAt,value
2022-11-14T00:06:34.852Z,101975.75
2022-11-14T00:14:08.750Z,101969.47
2022-11-14T00:21:44.005Z,101963.00
2022-11-14T00:29:18.188Z,101959.31
2022-11-14T00:36:53.316Z,101942.38
2022-11-14T00:44:27.198Z,101944.03
2022-11-14T00:52:02.419Z,101941.16
2022-11-14T00:59:36.271Z,101922.56
2022-11-14T01:07:11.438Z,101918.88
2022-11-14T01:14:45.258Z,101916.16
2022-11-14T01:22:20.464Z,101902.72
2022-11-14T01:29:54.351Z,101899.31
2022-11-14T01:37:29.620Z,101885.66
2022-11-14T01:45:23.649Z,101887.38
2022-11-14T01:52:58.869Z,101875.81
2022-11-14T02:00:32.859Z,101869.28
2022-11-14T02:08:12.607Z,101871.56
2022-11-14T02:15:46.481Z,101860.22
2022-11-14T02:23:28.179Z,101837.28
2022-11-14T02:31:03.241Z,101833.22
2022-11-14T02:38:38.452Z,101821.75
2022-11-14T02:46:12.394Z,101817.53
2022-11-14T02:53:47.559Z,101816.91
2022-11-14T03:01:21.904Z,101807.28
2022-11-14T03:08:57.288Z,101799.47
2022-11-14T03:16:31.109Z,101794.09
2022-11-14T03:24:07.133Z,101786.94
2022-11-14T03:31:41.316Z,101779.81
2022-11-14T03:39:16.897Z,101769.28
2022-11-14T03:46:50.765Z,101751.47
2022-11-14T03:54:26.016Z,101760.25
2022-11-14T04:01:59.829Z,101752.28
2022-11-14T04:09:35.237Z,101750.63
2022-11-14T04:17:08.956Z,101744.19
2022-11-14T04:24:44.112Z,101743.91
2022-11-14T04:32:18.213Z,101734.06
2022-11-14T04:39:53.438Z,101732.97
2022-11-14T04:47:27.252Z,101732.81
2022-11-14T04:55:02.625Z,101720.28
2022-11-14T05:02:36.494Z,101715.75
2022-11-14T05:10:11.929Z,101710.31
2022-11-14T05:17:45.777Z,101712.97
2022-11-14T05:25:21.599Z,101707.50
2022-11-14T05:32:56.270Z,101701.28
2022-11-14T05:40:31.505Z,101680.84
2022-11-14T05:48:05.763Z,101688.78
2022-11-14T05:55:40.963Z,101688.66
2022-11-14T06:03:15.511Z,101688.50
2022-11-14T06:10:50.842Z,101682.50
2022-11-14T06:18:24.673Z,101686.91
2022-11-14T06:26:03.860Z,101691.38
2022-11-14T06:33:38.497Z,101685.91
2022-11-14T06:41:17.209Z,101679.34
2022-11-14T06:48:52.458Z,101685.47
2022-11-14T06:56:27.922Z,101688.06
2022-11-14T07:04:02.392Z,101693.44
2022-11-14T07:11:37.901Z,101689.84
2022-11-14T07:19:12.555Z,101686.53
2022-11-14T07:26:48.052Z,101687.50
2022-11-14T07:34:21.859Z,101683.13
2022-11-14T07:41:57.059Z,101664.22
2022-11-14T07:49:30.825Z,101673.06
2022-11-14T07:57:06.315Z,101660.63
2022-11-14T08:04:40.111Z,101654.44
2022-11-14T08:12:15.303Z,101650.91
2022-11-14T08:19:49.268Z,101651.44
2022-11-14T08:27:24.699Z,101639.16
2022-11-14T08:34:58.515Z,101647.09
2022-11-14T08:42:33.825Z,101623.69
2022-11-14T08:50:07.917Z,101625.06
2022-11-14T08:57:48.085Z,101628.53
2022-11-14T09:05:23.156Z,101628.47
2022-11-14T09:12:59.165Z,101616.84
2022-11-14T09:20:36.252Z,101623.75
2022-11-14T09:28:15.226Z,101618.44
2022-11-14T09:35:49.311Z,101618.78
2022-11-14T09:43:40.715Z,101617.50
2022-11-14T09:51:18.049Z,101600.97
2022-11-14T09:58:53.507Z,101602.19
2022-11-14T10:06:31.036Z,101581.06
2022-11-14T10:14:29.612Z,101578.81
2022-11-14T10:22:18.069Z,101581.06
2022-11-14T10:30:04.555Z,101575.16
2022-11-14T10:37:43.032Z,101563.22
2022-11-14T10:45:26.836Z,101543.81
2022-11-14T10:53:05.236Z,101546.91
2022-11-14T11:00:40.704Z,101543.56
2022-11-14T11:08:47.798Z,101533.97
2022-11-14T11:16:25.784Z,101516.59
2022-11-14T11:23:59.641Z,101506.47
2022-11-14T11:31:53.620Z,101496.97
2022-11-14T11:39:31.877Z,101498.03
2022-11-14T11:47:13.371Z,101480.94
2022-11-14T11:55:03.641Z,101472.41
2022-11-14T12:02:49.504Z,101468.13
2022-11-14T12:10:27.686Z,101462.97
2022-11-14T12:18:19.872Z,101468.69
2022-11-14T12:26:20.910Z,101460.97
2022-11-14T12:34:01.770Z,101452.06
2022-11-14T12:41:39.355Z,101458.28
2022-11-14T12:49:39.364Z,101452.84
2022-11-14T12:57:43.754Z,101449.22
2022-11-14T13:05:26.467Z,101441.41
2022-11-14T13:13:25.129Z,101425.34
2022-11-14T16:19:29.008Z,101333.41
2022-11-14T16:27:03.060Z,101329.66
2022-11-14T16:34:38.265Z,101339.34
2022-11-14T16:42:12.832Z,101330.97
2022-11-14T16:49:48.320Z,101313.00
2022-11-14T16:57:22.121Z,101315.59
2022-11-14T17:04:57.537Z,101326.22
2022-11-14T17:12:32.184Z,101332.22
2022-11-14T17:20:10.396Z,101331.22
2022-11-14T17:27:44.212Z,101324.69
2022-11-14T17:35:19.832Z,101322.66
2022-11-14T17:42:54.268Z,101315.31
2022-11-14T17:50:33.159Z,101311.44
2022-11-14T17:58:11.310Z,101302.53
2022-11-14T18:05:46.605Z,101300.59
2022-11-14T18:13:20.370Z,101305.75
2022-11-14T18:20:55.844Z,101294.78
2022-11-14T18:28:29.918Z,101287.47
2022-11-14T18:36:08.845Z,101269.56
2022-11-14T18:43:44.423Z,101274.72
2022-11-14T18:51:21.453Z,101261.81
2022-11-14T18:58:56.491Z,101261.59
2022-11-14T19:06:34.774Z,101263.28
2022-11-14T19:14:08.580Z,101247.88
2022-11-14T19:21:44.687Z,101251.19
2022-11-14T19:29:18.560Z,101254.50
2022-11-14T19:37:01.996Z,101243.38
2022-11-14T19:44:35.830Z,101217.34
2022-11-14T19:52:11.756Z,101213.88
2022-11-14T19:59:45.875Z,101226.97
2022-11-14T20:07:21.384Z,101217.72
2022-11-14T20:14:55.337Z,101214.19
2022-11-14T20:22:30.961Z,101226.59
2022-11-14T20:30:05.838Z,101223.59
2022-11-14T20:37:41.175Z,101225.34
2022-11-14T20:45:15.153Z,101222.16
2022-11-14T20:52:50.475Z,101220.38
2022-11-14T21:00:24.452Z,101211.50
2022-11-14T21:07:59.610Z,101204.50
2022-11-14T21:15:35.551Z,101208.13
2022-11-14T21:23:10.749Z,101194.28
2022-11-14T21:30:44.673Z,101203.13
2022-11-14T21:38:21.186Z,101187.81
2022-11-14T21:45:59.748Z,101187.88
2022-11-14T21:53:35.976Z,101183.44
2022-11-14T22:01:11.594Z,101173.22
2022-11-14T22:08:46.868Z,101160.66
2022-11-14T22:16:21.030Z,101159.47
2022-11-14T22:23:56.851Z,101166.53
2022-11-14T22:31:30.825Z,101169.19
2022-11-14T22:39:06.948Z,101167.44
2022-11-14T22:46:40.759Z,101158.38
2022-11-14T22:54:15.930Z,101163.69
2022-11-14T23:01:49.827Z,101166.16
2022-11-14T23:09:24.878Z,101150.03
2022-11-14T23:16:58.681Z,101148.78
2022-11-14T23:24:33.844Z,101151.31
2022-11-14T23:32:07.672Z,101153.06
2022-11-14T23:39:43.643Z,101143.34
2022-11-14T23:47:17.537Z,101122.31
2022-11-14T23:54:52.755Z,101133.06
